createdAt,value
2023-05-20T00:00:53.388Z,83.72
2023-05-20T00:03:20.674Z,83.61
2023-05-20T00:05:47.409Z,83.48
2023-05-20T00:08:18.376Z,84.08
2023-05-20T00:10:45.044Z,84.31
2023-05-20T00:13:11.576Z,84.58
2023-05-20T00:15:40.259Z,85.17
2023-05-20T00:18:08.775Z,84.86
2023-05-20T00:20:35.511Z,85.33
2023-05-20T00:23:02.231Z,85.45
2023-05-20T00:25:30.924Z,85.81
2023-05-20T00:27:57.617Z,84.84
2023-05-20T00:30:35.742Z,85.51
2023-05-20T00:33:03.671Z,86.66
2023-05-20T00:35:30.357Z,87.24
2023-05-20T00:37:57.001Z,87.70
2023-05-20T00:40:24.872Z,89.05
2023-05-20T00:42:53.311Z,88.81
2023-05-20T00:45:20.067Z,88.79
2023-05-20T00:47:46.892Z,89.45
2023-05-20T00:50:13.593Z,89.87
2023-05-20T00:52:41.792Z,89.81
2023-05-20T00:55:11.005Z,90.46
2023-05-20T00:57:37.596Z,90.14
2023-05-20T01:00:07.672Z,90.75
2023-05-20T01:08:00.331Z,90.24
2023-05-20T01:10:30.353Z,90.14
2023-05-20T01:13:01.979Z,90.66
2023-05-20T01:15:29.891Z,91.30
2023-05-20T01:18:01.884Z,91.17
2023-05-20T01:20:34.244Z,91.76
2023-05-20T01:23:03.404Z,91.33
2023-05-20T01:25:30.093Z,91.22
2023-05-20T01:28:00.349Z,91.16
2023-05-20T01:30:31.114Z,91.81
2023-05-20T01:33:05.737Z,92.32
2023-05-20T01:35:33.199Z,93.32
2023-05-20T01:38:00.805Z,93.22
2023-05-20T01:40:28.376Z,93.07
2023-05-20T01:42:56.235Z,93.48
2023-05-20T01:45:24.459Z,92.43
2023-05-20T01:47:52.899Z,93.31
2023-05-20T01:50:19.699Z,93.20
2023-05-20T01:52:46.456Z,94.08
2023-05-20T01:55:18.198Z,94.57
2023-05-20T01:57:45.113Z,94.57
2023-05-20T02:00:12.164Z,94.77
2023-05-20T02:02:39.061Z,96.04
2023-05-20T02:05:08.074Z,94.80
2023-05-20T02:07:34.663Z,95.36
2023-05-20T02:10:03.268Z,95.91
2023-05-20T02:12:29.925Z,95.97
2023-05-20T02:14:56.584Z,95.05
2023-05-20T02:17:34.779Z,94.17
2023-05-20T02:20:06.507Z,93.98
2023-05-20T02:22:36.975Z,93.58
2023-05-20T02:25:03.718Z,93.39
2023-05-20T02:27:32.426Z,93.35
2023-05-20T02:29:58.911Z,92.10
2023-05-20T02:32:28.204Z,91.96
2023-05-20T02:34:55.896Z,92.00
2023-05-20T02:37:22.462Z,91.86
2023-05-20T02:39:49.033Z,91.07
2023-05-20T02:42:22.184Z,91.06
2023-05-20T02:44:48.746Z,91.43
2023-05-20T02:47:15.591Z,90.74
2023-05-20T02:49:44.371Z,90.79
2023-05-20T02:52:10.911Z,90.21
2023-05-20T02:54:37.398Z,89.95
2023-05-20T02:57:04.320Z,89.79
2023-05-20T02:59:34.416Z,90.00
2023-05-20T03:02:00.999Z,89.89
2023-05-20T03:04:28.424Z,90.38
2023-05-20T03:06:57.777Z,91.01
2023-05-20T03:09:25.201Z,90.91
2023-05-20T03:11:51.904Z,91.64
2023-05-20T03:14:18.432Z,92.70
2023-05-20T03:16:44.967Z,92.42
2023-05-20T03:19:13.471Z,92.96
2023-05-20T03:21:43.923Z,91.63
2023-05-20T03:24:10.816Z,91.41
2023-05-20T03:26:40.406Z,90.90
2023-05-20T03:29:06.918Z,90.73
2023-05-20T03:31:35.548Z,90.36
2023-05-20T03:34:04.423Z,90.83
2023-05-20T03:36:31.294Z,90.86
2023-05-20T03:38:57.825Z,91.68
2023-05-20T03:41:28.733Z,91.11
2023-05-20T03:43:55.269Z,91.65
2023-05-20T03:46:21.852Z,92.29
2023-05-20T03:48:48.640Z,91.81
2023-05-20T03:51:15.125Z,92.62
2023-05-20T03:53:44.020Z,93.36
2023-05-20T03:56:12.295Z,93.31
2023-05-20T03:58:38.859Z,93.85
2023-05-20T04:01:05.748Z,94.46
2023-05-20T04:03:34.240Z,93.65
2023-05-20T04:06:01.093Z,94.23
2023-05-20T04:08:27.687Z,94.33
2023-05-20T04:10:57.778Z,93.43
2023-05-20T04:13:25.643Z,93.90
2023-05-20T04:15:53.252Z,94.49
2023-05-20T04:18:26.482Z,93.83
2023-05-20T04:20:56.433Z,94.37
2023-05-20T04:23:24.912Z,93.83
2023-05-20T04:25:53.169Z,94.24
2023-05-20T04:28:23.981Z,94.87
2023-05-20T04:30:59.187Z,95.03
2023-05-20T04:33:26.869Z,95.05
2023-05-20T04:35:58.823Z,94.05
2023-05-20T04:38:32.673Z,94.05
2023-05-20T04:41:00.396Z,93.76
2023-05-20T04:43:30.169Z,94.56
2023-05-20T04:45:58.012Z,94.72
2023-05-20T04:48:24.769Z,94.50
2023-05-20T04:50:52.208Z,94.04
2023-05-20T04:53:21.170Z,94.36
2023-05-20T04:55:48.503Z,94.21
2023-05-20T04:58:17.258Z,94.96
2023-05-20T05:00:46.981Z,94.84
2023-05-20T05:03:13.683Z,95.50
2023-05-20T05:05:40.735Z,95.33
2023-05-20T05:08:09.365Z,95.65
2023-05-20T05:10:36.205Z,95.29
2023-05-20T05:13:02.770Z,95.25
2023-05-20T05:15:30.072Z,94.51
2023-05-20T05:17:56.896Z,94.29
2023-05-20T05:20:23.463Z,94.21
2023-05-20T05:22:52.618Z,93.74
2023-05-20T05:25:19.190Z,93.74
2023-05-20T05:27:45.824Z,93.11
2023-05-20T05:30:12.539Z,93.69
2023-05-20T05:32:39.201Z,93.22
2023-05-20T05:35:08.266Z,93.29
2023-05-20T05:37:41.882Z,92.78
2023-05-20T05:40:10.154Z,92.89
2023-05-20T05:42:36.654Z,92.52
2023-05-20T05:45:09.811Z,92.22
2023-05-20T05:47:39.941Z,91.32
2023-05-20T05:50:10.145Z,91.96
2023-05-20T05:52:36.791Z,91.55
2023-05-20T05:55:03.643Z,92.17
2023-05-20T05:57:30.154Z,91.66
2023-05-20T05:59:56.773Z,91.93
2023-05-20T06:02:23.624Z,91.27
2023-05-20T06:04:50.363Z,91.60
2023-05-20T06:07:16.956Z,92.24
2023-05-20T06:09:43.521Z,92.38
2023-05-20T06:12:10.937Z,91.67
2023-05-20T06:14:50.447Z,91.22
2023-05-20T06:17:20.073Z,91.50
2023-05-20T06:19:46.686Z,91.66
2023-05-20T06:22:13.339Z,90.57
2023-05-20T06:24:39.934Z,90.36
2023-05-20T06:27:09.779Z,90.71
2023-05-20T06:29:36.544Z,90.89
2023-05-20T06:32:06.886Z,90.70
2023-05-20T06:34:33.430Z,90.14
2023-05-20T06:37:04.826Z,89.76
2023-05-20T06:39:31.393Z,89.21
2023-05-20T06:41:57.937Z,88.21
2023-05-20T06:44:26.196Z,87.85
2023-05-20T06:46:52.884Z,87.50
2023-05-20T06:49:24.116Z,87.04
2023-05-20T06:51:52.349Z,86.41
2023-05-20T06:54:18.930Z,86.84
2023-05-20T06:56:45.539Z,86.09
2023-05-20T06:59:15.930Z,85.61
2023-05-20T07:01:42.773Z,85.58
2023-05-20T07:04:09.415Z,85.61
2023-05-20T07:06:38.455Z,85.71
2023-05-20T07:09:08.923Z,85.70
2023-05-20T07:11:35.616Z,85.81
2023-05-20T07:14:08.712Z,85.65
2023-05-20T07:16:36.937Z,85.14
2023-05-20T07:19:04.632Z,84.81
2023-05-20T07:21:31.386Z,85.14
2023-05-20T07:23:57.905Z,84.65
2023-05-20T07:26:24.454Z,84.48
2023-05-20T07:28:52.017Z,84.79
2023-05-20T07:31:24.699Z,84.75
2023-05-20T07:33:51.382Z,85.39
2023-05-20T07:36:22.248Z,85.19
2023-05-20T07:38:57.088Z,85.55
2023-05-20T07:41:31.637Z,86.04
2023-05-20T07:43:58.289Z,85.92
2023-05-20T07:46:24.926Z,86.48
2023-05-20T07:48:51.729Z,86.72
2023-05-20T07:51:19.036Z,86.82
2023-05-20T07:53:45.632Z,86.93
2023-05-20T07:56:14.392Z,86.24
2023-05-20T07:58:41.852Z,85.78
2023-05-20T08:01:11.685Z,85.80
2023-05-20T08:03:38.362Z,86.05
2023-05-20T08:06:04.963Z,85.61
2023-05-20T08:08:31.560Z,85.70
2023-05-20T08:10:59.838Z,86.30
2023-05-20T08:13:26.828Z,86.57
2023-05-20T08:15:56.468Z,86.17
2023-05-20T08:18:23.578Z,86.53
2023-05-20T08:20:50.249Z,86.59
2023-05-20T08:23:20.431Z,86.78
2023-05-20T08:25:48.471Z,86.28
2023-05-20T08:28:15.003Z,86.17
2023-05-20T08:30:41.718Z,85.78
2023-05-20T08:33:14.987Z,85.39
2023-05-20T08:35:41.560Z,84.96
2023-05-20T08:38:08.166Z,84.38
2023-05-20T08:40:35.909Z,84.10
2023-05-20T08:43:02.984Z,83.95
2023-05-20T08:45:32.352Z,84.00
2023-05-20T08:48:00.158Z,83.96
2023-05-20T08:50:27.735Z,83.59
2023-05-20T08:52:54.562Z,83.10
2023-05-20T08:55:31.608Z,82.44
2023-05-20T08:57:58.219Z,82.21
2023-05-20T09:00:28.932Z,81.30
2023-05-20T09:02:58.168Z,80.41
2023-05-20T09:05:28.965Z,79.93
2023-05-20T09:08:08.908Z,79.03
2023-05-20T09:10:36.587Z,78.84
2023-05-20T09:13:04.771Z,79.01
2023-05-20T09:15:34.450Z,79.51
2023-05-20T09:18:04.914Z,79.41
2023-05-20T09:20:37.509Z,78.89
2023-05-20T09:23:07.180Z,78.79
2023-05-20T09:25:36.656Z,78.17
2023-05-20T09:28:09.005Z,77.67
2023-05-20T09:30:35.751Z,77.40
2023-05-20T09:33:05.006Z,76.56
2023-05-20T09:35:37.509Z,77.18
2023-05-20T09:38:06.549Z,77.08
2023-05-20T09:40:33.791Z,76.78
2023-05-20T09:43:05.471Z,77.17
2023-05-20T09:45:32.073Z,77.54
2023-05-20T09:48:01.517Z,77.76
2023-05-20T09:50:31.912Z,77.87
2023-05-20T09:53:04.205Z,77.27
2023-05-20T09:55:31.416Z,77.20
2023-05-20T09:58:04.329Z,76.90
2023-05-20T10:00:31.664Z,76.08
2023-05-20T10:02:59.608Z,74.82
2023-05-20T10:05:35.726Z,75.44
2023-05-20T10:08:22.446Z,75.61
2023-05-20T10:11:26.338Z,74.65
2023-05-20T10:14:14.365Z,75.29
2023-05-20T10:16:51.704Z,75.07
2023-05-20T10:19:33.490Z,74.26
2023-05-20T10:22:09.187Z,74.42
2023-05-20T10:24:38.006Z,73.43
2023-05-20T10:27:12.532Z,73.28
2023-05-20T10:32:34.969Z,71.65
2023-05-20T10:35:09.258Z,71.06
2023-05-20T10:37:46.443Z,70.88
2023-05-20T10:40:18.439Z,71.16
2023-05-20T10:42:46.190Z,72.26
2023-05-20T10:45:13.188Z,71.99
2023-05-20T10:47:56.919Z,69.82
2023-05-20T10:50:37.543Z,72.14
2023-05-20T10:53:18.551Z,71.88
2023-05-20T10:55:54.864Z,71.04
2023-05-20T10:58:29.709Z,70.00
2023-05-20T11:00:56.767Z,69.38
2023-05-20T11:03:24.306Z,69.63
2023-05-20T11:05:51.726Z,68.23
2023-05-20T11:08:29.257Z,68.08
2023-05-20T11:10:57.536Z,67.34
2023-05-20T11:13:33.084Z,68.94
2023-05-20T11:16:01.419Z,68.47
2023-05-20T11:18:30.893Z,69.71
2023-05-20T11:21:00.281Z,70.18
2023-05-20T11:23:33.664Z,70.17
2023-05-20T11:26:00.306Z,69.63
2023-05-20T11:28:27.099Z,67.96
2023-05-20T11:30:54.049Z,67.79
2023-05-20T11:33:24.017Z,67.26
2023-05-20T11:35:57.204Z,66.60
2023-05-20T11:38:23.742Z,66.55
2023-05-20T11:40:55.419Z,66.35
2023-05-20T11:43:23.713Z,66.54
2023-05-20T11:45:59.405Z,64.71
2023-05-20T11:48:28.367Z,63.86
2023-05-20T11:50:57.168Z,62.95
2023-05-20T11:53:24.858Z,61.17
2023-05-20T11:55:55.544Z,61.65
2023-05-20T12:01:22.956Z,62.38
2023-05-20T12:03:50.057Z,62.52
2023-05-20T12:06:19.857Z,59.43
2023-05-20T12:08:47.541Z,61.72
2023-05-20T12:11:14.154Z,61.27
2023-05-20T12:13:41.057Z,60.34
2023-05-20T12:16:07.972Z,60.08
2023-05-20T12:18:34.545Z,59.45
2023-05-20T12:21:01.329Z,59.92
2023-05-20T12:23:32.526Z,61.14
2023-05-20T12:25:59.169Z,61.75
2023-05-20T12:28:25.722Z,60.78
2023-05-20T12:30:52.586Z,61.19
2023-05-20T12:33:20.708Z,61.34
2023-05-20T12:35:47.386Z,60.50
2023-05-20T12:38:15.709Z,61.01
2023-05-20T12:40:44.618Z,62.13
2023-05-20T12:43:11.192Z,63.11
2023-05-20T12:45:37.849Z,62.83
2023-05-20T12:48:09.500Z,61.39
2023-05-20T12:50:36.319Z,62.36
2023-05-20T12:53:04.764Z,62.88
2023-05-20T12:55:31.346Z,63.09
2023-05-20T12:57:59.634Z,63.22
2023-05-20T13:00:28.411Z,63.99
2023-05-20T13:02:55.154Z,64.51
2023-05-20T13:05:22.582Z,64.52
2023-05-20T13:07:49.239Z,64.68
2023-05-20T13:10:18.455Z,64.98
2023-05-20T13:12:48.084Z,64.98
2023-05-20T13:15:16.669Z,65.12
2023-05-20T13:17:43.322Z,65.04
2023-05-20T13:20:11.987Z,65.32
2023-05-20T13:22:38.681Z,65.36
2023-05-20T13:25:05.664Z,65.12
2023-05-20T13:27:32.251Z,65.57
2023-05-20T13:30:03.684Z,65.25
2023-05-20T13:32:30.200Z,65.74
2023-05-20T13:34:57.142Z,66.07
2023-05-20T13:37:25.618Z,66.04
2023-05-20T13:39:52.179Z,65.76
2023-05-20T13:42:18.918Z,64.91
2023-05-20T13:44:47.450Z,64.49
2023-05-20T13:47:14.036Z,64.89
2023-05-20T13:49:40.723Z,65.41
2023-05-20T13:52:16.249Z,65.86
2023-05-20T13:54:47.415Z,65.70
2023-05-20T13:57:14.266Z,65.45
2023-05-20T13:59:41.046Z,65.60
2023-05-20T14:02:08.168Z,65.10
2023-05-20T14:04:39.753Z,65.03
2023-05-20T14:07:09.805Z,64.35
2023-05-20T14:09:36.792Z,63.59
2023-05-20T14:12:03.742Z,62.94
2023-05-20T14:14:34.989Z,62.76
2023-05-20T14:17:01.708Z,62.29
2023-05-20T14:19:29.144Z,62.91
2023-05-20T14:21:56.033Z,63.06
2023-05-20T14:24:23.702Z,62.80
2023-05-20T14:26:50.560Z,62.87
2023-05-20T14:29:19.305Z,62.80
2023-05-20T14:31:46.274Z,62.61
2023-05-20T14:34:12.950Z,62.78
2023-05-20T14:36:39.960Z,62.45
2023-05-20T14:39:06.564Z,62.39
2023-05-20T14:41:33.159Z,62.28
2023-05-20T14:44:01.469Z,61.74
2023-05-20T14:46:28.069Z,62.84
2023-05-20T14:48:56.943Z,63.16
2023-05-20T14:51:23.665Z,63.00
2023-05-20T14:53:50.205Z,62.51
2023-05-20T14:56:16.785Z,62.31
2023-05-20T14:58:45.494Z,62.15
2023-05-20T15:01:15.592Z,62.54
2023-05-20T15:03:42.471Z,62.65
2023-05-20T15:06:09.156Z,62.34
2023-05-20T15:08:35.734Z,61.91
2023-05-20T15:11:02.246Z,61.65
2023-05-20T15:13:28.974Z,61.65
2023-05-20T15:15:55.846Z,61.58
2023-05-20T15:18:22.457Z,61.77
2023-05-20T15:20:49.268Z,62.53
2023-05-20T15:23:17.253Z,63.35
2023-05-20T15:25:43.851Z,63.75
2023-05-20T15:28:18.040Z,63.79
2023-05-20T15:30:44.540Z,63.54
2023-05-20T15:33:11.472Z,63.29
2023-05-20T15:35:49.908Z,63.57
2023-05-20T15:38:20.514Z,63.47
2023-05-20T15:40:50.361Z,63.46
2023-05-20T15:43:17.813Z,63.54
2023-05-20T15:45:45.235Z,63.83
2023-05-20T15:48:12.421Z,64.19
2023-05-20T15:50:39.116Z,64.72
2023-05-20T15:53:09.562Z,65.11
2023-05-20T15:55:36.229Z,65.30
2023-05-20T15:58:06.261Z,65.40
2023-05-20T16:00:37.039Z,65.33
2023-05-20T16:03:03.929Z,65.06
2023-05-20T16:05:31.116Z,65.07
2023-05-20T16:07:57.694Z,65.08
2023-05-20T16:10:26.066Z,64.81
2023-05-20T16:13:04.198Z,64.62
2023-05-20T16:15:36.412Z,65.35
2023-05-20T16:18:03.306Z,65.32
2023-05-20T16:20:30.443Z,65.66
2023-05-20T16:22:57.012Z,65.80
2023-05-20T16:25:23.861Z,65.67
2023-05-20T16:27:50.579Z,65.85
2023-05-20T16:30:17.072Z,65.91
2023-05-20T16:32:43.692Z,66.72
2023-05-20T16:35:14.277Z,66.83
2023-05-20T16:37:43.017Z,66.95
2023-05-20T16:40:09.861Z,68.31
2023-05-20T16:42:36.746Z,69.71
2023-05-20T16:45:03.506Z,70.29
2023-05-20T16:47:30.026Z,70.34
2023-05-20T16:50:05.345Z,71.81
2023-05-20T16:52:34.370Z,72.48
2023-05-20T16:55:03.862Z,72.63
2023-05-20T16:57:33.396Z,74.02
2023-05-20T17:00:00.108Z,74.97
2023-05-20T17:02:26.790Z,75.92
2023-05-20T17:04:59.849Z,76.81
2023-05-20T17:07:26.352Z,76.79
2023-05-20T17:09:52.923Z,77.65
2023-05-20T17:12:21.222Z,78.60
2023-05-20T17:14:47.773Z,79.20
2023-05-20T17:17:16.542Z,82.27
2023-05-20T17:19:45.343Z,86.25
2023-05-20T17:22:11.940Z,89.22
2023-05-20T17:24:38.500Z,90.29
2023-05-20T17:27:10.465Z,91.87
2023-05-20T17:29:37.028Z,92.36
2023-05-20T17:32:03.737Z,93.24
2023-05-20T17:34:30.908Z,93.89
2023-05-20T17:36:57.671Z,94.55
2023-05-20T17:39:27.820Z,94.17
2023-05-20T17:41:56.556Z,96.26
2023-05-20T17:44:23.049Z,96.45
2023-05-20T17:46:52.615Z,96.96
2023-05-20T17:49:23.363Z,98.22
2023-05-20T17:51:49.893Z,98.20
2023-05-20T17:54:16.501Z,98.87
2023-05-20T17:56:52.693Z,100.00
2023-05-20T17:59:21.149Z,100.00
2023-05-20T18:01:47.863Z,100.00
2023-05-20T18:04:16.361Z,99.97
2023-05-20T18:06:42.893Z,100.00
2023-05-20T18:09:09.696Z,100.00
2023-05-20T18:11:46.208Z,100.00
2023-05-20T18:14:14.845Z,100.00
2023-05-20T18:16:41.496Z,100.00
2023-05-20T18:19:09.867Z,100.00
2023-05-20T18:21:37.482Z,100.00
2023-05-20T18:24:04.253Z,100.00
2023-05-20T18:26:31.257Z,100.00
2023-05-20T18:28:57.782Z,100.00
2023-05-20T18:31:25.469Z,100.00
2023-05-20T18:33:59.826Z,100.00
2023-05-20T18:36:27.479Z,100.00
2023-05-20T18:38:54.080Z,100.00
2023-05-20T18:41:27.020Z,100.00
2023-05-20T18:43:58.834Z,100.00
2023-05-20T18:46:30.728Z,100.00
2023-05-20T18:48:57.257Z,100.00
2023-05-20T18:51:23.934Z,100.00
2023-05-20T18:53:50.691Z,100.00
2023-05-20T18:56:17.573Z,100.00
2023-05-20T18:58:44.425Z,100.00
2023-05-20T19:01:12.890Z,100.00
2023-05-20T19:03:39.477Z,100.00
2023-05-20T19:06:06.300Z,100.00
2023-05-20T19:08:34.796Z,100.00
2023-05-20T19:11:01.373Z,100.00
2023-05-20T19:13:32.353Z,100.00
2023-05-20T19:15:59.077Z,100.00
2023-05-20T19:18:25.978Z,100.00
2023-05-20T19:20:53.161Z,100.00
2023-05-20T19:23:20.071Z,100.00
2023-05-20T19:25:48.960Z,100.00
2023-05-20T19:28:19.224Z,100.00
2023-05-20T19:30:45.942Z,100.00
2023-05-20T19:33:12.560Z,100.00
2023-05-20T19:35:39.097Z,100.00
2023-05-20T19:38:06.939Z,100.00
2023-05-20T19:40:33.590Z,100.00
2023-05-20T19:43:00.572Z,100.00
2023-05-20T19:45:27.214Z,100.00
2023-05-20T19:47:53.826Z,100.00
2023-05-20T19:50:20.510Z,100.00
2023-05-20T19:52:55.490Z,100.00
2023-05-20T19:55:28.478Z,100.00
2023-05-20T19:57:55.030Z,100.00
2023-05-20T20:00:22.192Z,100.00
2023-05-20T20:02:53.370Z,100.00
2023-05-20T20:05:23.035Z,100.00
2023-05-20T20:07:52.133Z,100.00
2023-05-20T20:10:18.807Z,100.00
2023-05-20T20:12:45.297Z,100.00
2023-05-20T20:15:13.744Z,100.00
2023-05-20T20:17:51.861Z,100.00
2023-05-20T20:20:21.543Z,100.00
2023-05-20T20:22:48.157Z,100.00
2023-05-20T20:25:14.823Z,100.00
2023-05-20T20:27:48.643Z,100.00
2023-05-20T20:30:15.519Z,100.00
2023-05-20T20:32:42.694Z,100.00
2023-05-20T20:35:12.585Z,100.00
2023-05-20T20:37:41.078Z,100.00
2023-05-20T20:40:13.229Z,100.00
2023-05-20T20:42:42.152Z,100.00
2023-05-20T20:45:09.204Z,100.00
2023-05-20T20:47:38.562Z,100.00
2023-05-20T20:50:14.484Z,100.00
2023-05-20T20:52:43.443Z,100.00
2023-05-20T20:55:10.793Z,100.00
2023-05-20T20:57:37.442Z,100.00
2023-05-20T21:00:16.348Z,100.00
2023-05-20T21:02:44.194Z,100.00
2023-05-20T21:05:16.744Z,100.00
2023-05-20T21:07:50.472Z,100.00
2023-05-20T21:10:17.815Z,100.00
2023-05-20T21:12:44.370Z,100.00
2023-05-20T21:15:14.380Z,100.00
2023-05-20T21:17:40.991Z,100.00
2023-05-20T21:20:08.239Z,100.00
2023-05-20T21:22:36.588Z,100.00
2023-05-20T21:25:03.257Z,100.00
2023-05-20T21:27:29.760Z,100.00
2023-05-20T21:29:56.566Z,100.00
2023-05-20T21:32:23.153Z,100.00
2023-05-20T21:34:49.670Z,100.00
2023-05-20T21:37:18.499Z,100.00
2023-05-20T21:39:45.029Z,100.00
2023-05-20T21:42:11.542Z,100.00
2023-05-20T21:44:42.853Z,100.00
2023-05-20T21:47:09.365Z,100.00
2023-05-20T21:49:35.921Z,100.00
2023-05-20T21:52:04.223Z,100.00
2023-05-20T21:54:30.754Z,100.00
2023-05-20T21:56:57.248Z,100.00
2023-05-20T21:59:30.276Z,100.00
2023-05-20T22:01:58.152Z,100.00
2023-05-20T22:04:25.162Z,100.00
2023-05-20T22:06:52.079Z,100.00
2023-05-20T22:09:21.152Z,100.00
2023-05-20T22:11:48.217Z,100.00
2023-05-20T22:14:18.484Z,100.00
2023-05-20T22:16:46.671Z,100.00
2023-05-20T22:19:15.208Z,100.00
2023-05-20T22:21:54.239Z,100.00
2023-05-20T22:24:23.744Z,100.00
2023-05-20T22:26:50.878Z,100.00
2023-05-20T22:29:19.488Z,100.00
2023-05-20T22:31:46.122Z,100.00
2023-05-20T22:34:12.752Z,100.00
2023-05-20T22:36:41.223Z,100.00
2023-05-20T22:39:08.129Z,100.00
2023-05-20T22:41:34.668Z,100.00
2023-05-20T22:44:01.559Z,100.00
2023-05-20T22:46:28.617Z,100.00
2023-05-20T22:48:55.548Z,100.00
2023-05-20T22:51:22.928Z,100.00
2023-05-20T22:53:49.591Z,100.00
2023-05-20T22:56:17.050Z,100.00
2023-05-20T22:58:55.350Z,100.00
2023-05-20T23:01:24.202Z,100.00
2023-05-20T23:03:53.191Z,100.00
2023-05-20T23:06:20.253Z,100.00
2023-05-20T23:08:47.272Z,100.00
2023-05-20T23:11:15.941Z,100.00
2023-05-20T23:13:44.203Z,100.00
2023-05-20T23:16:10.785Z,100.00
2023-05-20T23:18:37.326Z,100.00
2023-05-20T23:21:06.475Z,100.00
2023-05-20T23:23:33.224Z,100.00
2023-05-20T23:26:00.195Z,100.00
2023-05-20T23:28:28.588Z,100.00
2023-05-20T23:30:55.161Z,100.00
2023-05-20T23:33:25.298Z,100.00
2023-05-20T23:35:57.282Z,100.00
2023-05-20T23:38:24.368Z,100.00
2023-05-20T23:40:51.666Z,100.00
2023-05-20T23:43:18.377Z,100.00
2023-05-20T23:45:44.885Z,100.00
2023-05-20T23:48:13.337Z,100.00
2023-05-20T23:50:45.735Z,100.00
2023-05-20T23:53:12.603Z,100.00
2023-05-20T23:55:39.127Z,100.00
2023-05-20T23:58:05.853Z,100.00
